createdAt,value
2023-03-17T00:04:59.258Z,2.05
2023-03-17T00:10:27.032Z,2.02
2023-03-17T00:15:54.954Z,1.98
2023-03-17T00:21:22.621Z,1.96
2023-03-17T00:26:43.659Z,1.96
2023-03-17T00:32:05.100Z,1.93
2023-03-17T00:37:25.843Z,1.95
2023-03-17T00:42:46.518Z,1.90
2023-03-17T00:48:21.831Z,1.92
2023-03-17T00:53:43.218Z,1.91
2023-03-17T00:59:05.047Z,1.90
2023-03-17T01:04:26.108Z,1.83
2023-03-17T01:09:46.693Z,1.78
2023-03-17T01:15:07.841Z,1.78
2023-03-17T01:20:32.066Z,1.80
2023-03-17T01:25:52.882Z,1.81
2023-03-17T01:31:13.655Z,1.79
2023-03-17T01:36:34.477Z,1.77
2023-03-17T01:42:00.400Z,1.76
2023-03-17T01:47:24.579Z,1.76
2023-03-17T01:52:45.783Z,1.74
2023-03-17T01:58:07.411Z,1.73
2023-03-17T02:03:29.881Z,1.71
2023-03-17T02:08:50.919Z,1.72
2023-03-17T02:14:12.365Z,1.67
2023-03-17T02:19:35.322Z,1.64
2023-03-17T02:24:59.510Z,1.65
2023-03-17T02:30:24.246Z,1.65
2023-03-17T02:35:44.978Z,1.69
2023-03-17T02:41:07.268Z,1.67
2023-03-17T02:46:28.640Z,1.62
2023-03-17T02:51:53.436Z,1.61
2023-03-17T02:57:14.187Z,1.59
2023-03-17T03:02:34.810Z,1.63
2023-03-17T03:07:55.681Z,1.64
2023-03-17T03:13:16.854Z,1.60
2023-03-17T03:18:37.860Z,1.63
2023-03-17T03:23:58.629Z,1.63
2023-03-17T03:29:19.689Z,1.75
2023-03-17T03:34:40.585Z,1.91
2023-03-17T03:40:01.479Z,2.01
2023-03-17T03:45:22.407Z,2.06
2023-03-17T03:50:43.265Z,2.30
2023-03-17T03:56:04.393Z,2.31
2023-03-17T04:01:25.419Z,2.19
2023-03-17T04:06:46.402Z,2.20
2023-03-17T04:12:08.326Z,2.27
2023-03-17T04:17:29.316Z,2.44
2023-03-17T04:22:50.043Z,2.53
2023-03-17T04:28:12.248Z,2.60
2023-03-17T04:33:33.581Z,2.67
2023-03-17T04:38:54.355Z,2.71
2023-03-17T04:44:15.081Z,2.78
2023-03-17T04:49:35.608Z,2.62
2023-03-17T04:54:56.548Z,2.64
2023-03-17T05:00:18.237Z,2.51
2023-03-17T05:05:38.914Z,2.54
2023-03-17T05:10:59.433Z,2.55
2023-03-17T05:16:20.227Z,2.63
2023-03-17T05:21:41.517Z,2.53
2023-03-17T05:27:02.182Z,2.70
2023-03-17T05:32:23.207Z,2.93
2023-03-17T05:37:44.753Z,3.02
2023-03-17T05:43:06.236Z,3.07
2023-03-17T05:48:27.082Z,2.97
2023-03-17T05:53:47.853Z,3.04
2023-03-17T05:59:09.489Z,3.02
2023-03-17T06:04:30.202Z,2.99
2023-03-17T06:09:50.793Z,2.98
2023-03-17T06:15:11.564Z,3.17
2023-03-17T06:20:33.458Z,3.29
2023-03-17T06:25:54.431Z,3.19
2023-03-17T06:31:15.633Z,2.94
2023-03-17T06:36:38.613Z,2.80
2023-03-17T06:41:59.145Z,3.06
2023-03-17T06:47:20.199Z,3.34
2023-03-17T06:52:41.348Z,3.40
2023-03-17T06:58:03.139Z,3.55
2023-03-17T07:03:25.561Z,3.62
2023-03-17T07:08:47.601Z,3.74
2023-03-17T07:14:09.065Z,3.86
2023-03-17T07:19:31.318Z,3.91
2023-03-17T07:24:52.674Z,3.94
2023-03-17T07:30:15.020Z,3.96
2023-03-17T07:35:36.308Z,4.04
2023-03-17T07:40:56.866Z,4.13
2023-03-17T07:46:17.663Z,4.21
2023-03-17T07:51:38.837Z,4.33
2023-03-17T07:56:59.538Z,4.42
2023-03-17T08:02:21.158Z,4.64
2023-03-17T08:07:41.905Z,5.05
2023-03-17T08:13:02.646Z,5.06
2023-03-17T08:18:23.736Z,5.10
2023-03-17T08:23:44.727Z,5.18
2023-03-17T08:29:05.562Z,5.30
2023-03-17T08:34:26.426Z,5.40
2023-03-17T08:39:47.274Z,5.50
2023-03-17T08:45:09.980Z,5.53
2023-03-17T08:50:31.345Z,5.67
2023-03-17T08:55:55.513Z,5.87
2023-03-17T09:01:17.044Z,6.02
2023-03-17T09:06:39.739Z,6.21
2023-03-17T09:12:06.321Z,6.34
2023-03-17T09:17:27.660Z,6.48
2023-03-17T09:22:49.187Z,6.62
2023-03-17T09:28:12.147Z,6.75
2023-03-17T09:33:33.284Z,6.83
2023-03-17T09:38:54.149Z,7.03
2023-03-17T09:44:28.803Z,7.20
2023-03-17T09:49:58.624Z,7.39
2023-03-17T09:55:28.206Z,7.51
2023-03-17T10:00:49.263Z,7.62
2023-03-17T10:06:39.262Z,7.77
2023-03-17T10:12:11.159Z,7.88
2023-03-17T10:17:36.743Z,8.01
2023-03-17T10:23:04.815Z,8.16
2023-03-17T10:28:35.773Z,8.42
2023-03-17T10:33:59.072Z,8.58
2023-03-17T10:39:22.389Z,8.66
2023-03-17T10:44:52.479Z,8.75
2023-03-17T10:50:16.850Z,8.86
2023-03-17T10:55:44.735Z,8.96
2023-03-17T11:01:15.315Z,9.18
2023-03-17T11:06:43.911Z,9.26
2023-03-17T11:12:32.842Z,9.33
2023-03-17T11:18:03.497Z,9.50
2023-03-17T11:23:50.290Z,9.61
2023-03-17T11:29:33.218Z,9.79
2023-03-17T11:35:21.976Z,9.94
2023-03-17T11:41:10.888Z,10.07
2023-03-17T11:46:46.659Z,10.14
2023-03-17T11:52:29.352Z,10.21
2023-03-17T11:58:01.481Z,10.25
2023-03-17T12:03:40.272Z,10.32
2023-03-17T12:09:30.863Z,10.36
2023-03-17T12:14:54.096Z,10.45
2023-03-17T12:20:28.021Z,10.58
2023-03-17T12:25:57.721Z,10.78
2023-03-17T12:31:25.224Z,10.90
2023-03-17T12:36:46.118Z,10.88
2023-03-17T12:42:22.102Z,11.06
2023-03-17T12:47:50.479Z,11.11
2023-03-17T12:53:33.703Z,11.29
2023-03-17T12:59:06.828Z,11.25
2023-03-17T13:04:32.967Z,11.28
2023-03-17T13:09:53.598Z,11.32
2023-03-17T13:15:48.924Z,11.39
2023-03-17T13:21:13.876Z,11.49
2023-03-17T13:26:55.420Z,11.44
2023-03-17T13:32:17.085Z,11.48
2023-03-17T13:38:08.729Z,11.62
2023-03-17T13:43:56.924Z,11.65
2023-03-17T13:49:24.225Z,11.61
2023-03-17T13:54:59.692Z,11.61
2023-03-17T14:00:24.487Z,11.73
2023-03-17T14:05:51.636Z,11.73
2023-03-17T14:11:32.357Z,11.71
2023-03-17T14:17:00.534Z,11.82
2023-03-17T14:22:24.661Z,11.79
2023-03-17T14:27:51.016Z,11.88
2023-03-17T14:33:12.034Z,11.76
2023-03-17T14:38:35.379Z,11.71
2023-03-17T14:44:00.687Z,11.71
2023-03-17T14:49:23.185Z,11.72
2023-03-17T14:54:44.476Z,11.54
2023-03-17T15:00:46.868Z,11.51
2023-03-17T15:06:13.389Z,11.49
2023-03-17T15:11:41.646Z,11.44
2023-03-17T15:17:05.233Z,11.38
2023-03-17T15:22:30.760Z,11.33
2023-03-17T15:27:52.438Z,11.32
2023-03-17T15:33:28.783Z,11.25
2023-03-17T15:38:49.545Z,11.13
2023-03-17T15:44:10.314Z,11.02
2023-03-17T15:49:31.106Z,10.94
2023-03-17T15:54:57.141Z,10.83
2023-03-17T16:00:22.885Z,10.73
2023-03-17T16:05:43.636Z,10.62
2023-03-17T16:11:04.201Z,10.51
2023-03-17T16:16:35.022Z,10.36
2023-03-17T16:21:56.389Z,10.22
2023-03-17T16:27:17.473Z,10.08
2023-03-17T16:32:38.191Z,9.96
2023-03-17T16:37:58.882Z,9.85
2023-03-17T16:43:25.139Z,9.72
2023-03-17T16:48:48.346Z,9.65
2023-03-17T16:54:10.376Z,9.50
2023-03-17T16:59:31.710Z,9.40
2023-03-17T17:04:52.636Z,9.30
2023-03-17T17:10:15.557Z,9.21
2023-03-17T17:15:37.689Z,9.07
2023-03-17T17:20:58.420Z,8.97
2023-03-17T17:26:18.978Z,8.84
2023-03-17T17:31:39.978Z,8.72
2023-03-17T17:37:00.971Z,8.62
2023-03-17T17:42:21.728Z,8.51
2023-03-17T17:47:42.819Z,8.40
2023-03-17T17:53:05.719Z,8.29
2023-03-17T17:58:26.727Z,8.19
2023-03-17T18:03:47.696Z,8.12
2023-03-17T18:09:09.658Z,8.05
2023-03-17T18:14:31.092Z,7.94
2023-03-17T18:19:55.643Z,7.86
2023-03-17T18:25:17.452Z,7.75
2023-03-17T18:30:38.545Z,7.67
2023-03-17T18:36:00.209Z,7.60
2023-03-17T18:41:20.988Z,7.55
2023-03-17T18:46:41.785Z,7.46
2023-03-17T18:52:02.515Z,7.37
2023-03-17T18:57:23.273Z,7.28
2023-03-17T19:02:44.111Z,7.19
2023-03-17T19:08:05.662Z,7.12
2023-03-17T19:13:27.344Z,7.06
2023-03-17T19:18:47.887Z,6.98
2023-03-17T19:24:10.705Z,6.94
2023-03-17T19:29:33.926Z,6.89
2023-03-17T19:34:55.001Z,6.80
2023-03-17T19:40:16.182Z,6.78
2023-03-17T19:45:37.074Z,6.78
2023-03-17T19:50:57.817Z,6.79
2023-03-17T19:56:19.052Z,6.79
2023-03-17T20:01:40.233Z,6.78
2023-03-17T20:07:01.124Z,6.80
2023-03-17T20:12:22.029Z,6.89
2023-03-17T20:17:43.363Z,6.81
2023-03-17T20:23:04.052Z,6.81
2023-03-17T20:28:25.301Z,6.82
2023-03-17T20:33:46.156Z,6.88
2023-03-17T20:39:06.913Z,6.94
2023-03-17T20:44:27.721Z,7.04
2023-03-17T20:49:48.838Z,7.13
2023-03-17T20:55:14.046Z,7.11
2023-03-17T21:00:35.557Z,7.05
2023-03-17T21:05:56.420Z,6.97
2023-03-17T21:11:20.331Z,6.97
2023-03-17T21:16:45.718Z,6.96
2023-03-17T21:22:06.892Z,6.91
2023-03-17T21:27:27.708Z,6.86
2023-03-17T21:32:48.533Z,6.93
2023-03-17T21:38:09.417Z,7.07
2023-03-17T21:43:30.524Z,7.22
2023-03-17T21:48:52.222Z,7.25
2023-03-17T21:54:14.273Z,7.23
2023-03-17T21:59:35.811Z,7.29
2023-03-17T22:04:56.901Z,7.26
2023-03-17T22:10:18.109Z,7.08
2023-03-17T22:15:38.744Z,7.00
2023-03-17T22:20:59.893Z,6.99
2023-03-17T22:26:21.952Z,7.00
2023-03-17T22:31:43.277Z,6.95
2023-03-17T22:37:04.614Z,6.94
2023-03-17T22:42:25.588Z,6.87
2023-03-17T22:47:46.569Z,6.61
2023-03-17T22:53:07.850Z,6.44
2023-03-17T22:58:29.073Z,6.55
2023-03-17T23:03:50.615Z,6.34
2023-03-17T23:09:11.320Z,6.35
2023-03-17T23:14:32.077Z,6.40
2023-03-17T23:19:53.029Z,6.36
2023-03-17T23:25:13.765Z,6.37
2023-03-17T23:30:35.797Z,6.25
2023-03-17T23:35:57.256Z,6.34
2023-03-17T23:41:18.660Z,6.33
2023-03-17T23:46:39.374Z,6.46
2023-03-17T23:52:00.050Z,6.48
2023-03-17T23:57:21.025Z,6.54
